sensor_id;sensor_type;location;lat;lon;timestamp;temperature;humidity
21625;DHT22;10974;51.034;3.744;2022-09-13T00:00:42;23.40;99.90
21625;DHT22;10974;51.034;3.744;2022-09-13T00:03:10;23.40;1.00
21625;DHT22;10974;51.034;3.744;2022-09-13T00:05:37;23.30;99.90
21625;DHT22;10974;51.034;3.744;2022-09-13T00:08:03;23.40;99.90
21625;DHT22;10974;51.034;3.744;2022-09-13T00:10:29;23.40;99.90
21625;DHT22;10974;51.034;3.744;2022-09-13T00:12:57;23.40;99.90
21625;DHT22;10974;51.034;3.744;2022-09-13T00:15:22;23.30;1.00
21625;DHT22;10974;51.034;3.744;2022-09-13T00:17:48;23.30;99.90
21625;DHT22;10974;51.034;3.744;2022-09-13T00:20:13;23.20;1.00
21625;DHT22;10974;51.034;3.744;2022-09-13T00:22:39;23.20;98.20
21625;DHT22;10974;51.034;3.744;2022-09-13T00:25:06;23.20;1.00
21625;DHT22;10974;51.034;3.744;2022-09-13T00:27:33;23.30;1.00
21625;DHT22;10974;51.034;3.744;2022-09-13T00:29:59;23.30;1.00
21625;DHT22;10974;51.034;3.744;2022-09-13T00:32:25;23.30;99.90
21625;DHT22;10974;51.034;3.744;2022-09-13T00:34:50;23.30;1.00
21625;DHT22;10974;51.034;3.744;2022-09-13T00:37:16;23.30;1.00
21625;DHT22;10974;51.034;3.744;2022-09-13T00:39:41;23.30;1.00
21625;DHT22;10974;51.034;3.744;2022-09-13T00:42:11;23.30;1.00
21625;DHT22;10974;51.034;3.744;2022-09-13T00:44:48;23.30;1.00
21625;DHT22;10974;51.034;3.744;2022-09-13T00:47:21;23.30;1.00
21625;DHT22;10974;51.034;3.744;2022-09-13T00:49:51;23.30;1.00
21625;DHT22;10974;51.034;3.744;2022-09-13T00:52:19;23.20;1.00
21625;DHT22;10974;51.034;3.744;2022-09-13T00:54:52;23.30;1.00
21625;DHT22;10974;51.034;3.744;2022-09-13T00:57:21;23.30;99.90
21625;DHT22;10974;51.034;3.744;2022-09-13T01:02:21;20.10;99.90
21625;DHT22;10974;51.034;3.744;2022-09-13T01:04:47;19.70;99.90
21625;DHT22;10974;51.034;3.744;2022-09-13T01:07:14;19.60;99.90
21625;DHT22;10974;51.034;3.744;2022-09-13T01:09:43;19.60;99.90
21625;DHT22;10974;51.034;3.744;2022-09-13T01:14:58;19.50;99.90
21625;DHT22;10974;51.034;3.744;2022-09-13T01:17:29;19.50;99.90
21625;DHT22;10974;51.034;3.744;2022-09-13T01:19:56;19.50;99.90
21625;DHT22;10974;51.034;3.744;2022-09-13T01:22:51;19.40;99.90
21625;DHT22;10974;51.034;3.744;2022-09-13T01:39:57;19.40;99.90
21625;DHT22;10974;51.034;3.744;2022-09-13T01:45:34;19.40;99.90
21625;DHT22;10974;51.034;3.744;2022-09-13T01:53:39;19.30;99.90
21625;DHT22;10974;51.034;3.744;2022-09-13T01:56:15;19.30;99.90
21625;DHT22;10974;51.034;3.744;2022-09-13T01:59:03;19.20;99.90
21625;DHT22;10974;51.034;3.744;2022-09-13T02:01:41;19.20;99.90
21625;DHT22;10974;51.034;3.744;2022-09-13T02:04:13;19.10;99.90
21625;DHT22;10974;51.034;3.744;2022-09-13T02:07:03;19.20;99.90
21625;DHT22;10974;51.034;3.744;2022-09-13T02:09:33;19.20;99.90
21625;DHT22;10974;51.034;3.744;2022-09-13T02:12:26;19.20;99.90
21625;DHT22;10974;51.034;3.744;2022-09-13T02:15:02;19.20;99.90
21625;DHT22;10974;51.034;3.744;2022-09-13T02:17:34;19.20;99.90
21625;DHT22;10974;51.034;3.744;2022-09-13T02:20:12;19.30;99.90
21625;DHT22;10974;51.034;3.744;2022-09-13T02:22:44;19.30;99.90
21625;DHT22;10974;51.034;3.744;2022-09-13T02:25:15;19.30;99.90
21625;DHT22;10974;51.034;3.744;2022-09-13T02:27:45;19.30;99.90
21625;DHT22;10974;51.034;3.744;2022-09-13T02:30:13;19.30;99.90
21625;DHT22;10974;51.034;3.744;2022-09-13T02:32:55;19.30;99.90
21625;DHT22;10974;51.034;3.744;2022-09-13T02:37:59;19.20;99.90
21625;DHT22;10974;51.034;3.744;2022-09-13T02:40:30;19.30;99.90
21625;DHT22;10974;51.034;3.744;2022-09-13T02:43:09;19.20;99.90
21625;DHT22;10974;51.034;3.744;2022-09-13T02:45:45;19.10;99.90
21625;DHT22;10974;51.034;3.744;2022-09-13T02:54:11;19.20;99.90
21625;DHT22;10974;51.034;3.744;2022-09-13T02:56:58;19.10;99.90
21625;DHT22;10974;51.034;3.744;2022-09-13T02:59:26;19.10;99.90
21625;DHT22;10974;51.034;3.744;2022-09-13T03:02:03;19.10;99.90
21625;DHT22;10974;51.034;3.744;2022-09-13T03:04:29;19.20;99.90
21625;DHT22;10974;51.034;3.744;2022-09-13T03:06:55;19.20;99.90
21625;DHT22;10974;51.034;3.744;2022-09-13T03:09:21;19.10;99.90
21625;DHT22;10974;51.034;3.744;2022-09-13T03:14:50;19.10;99.90
21625;DHT22;10974;51.034;3.744;2022-09-13T03:30:20;19.10;99.90
21625;DHT22;10974;51.034;3.744;2022-09-13T03:32:49;19.10;99.90
21625;DHT22;10974;51.034;3.744;2022-09-13T03:35:53;19.00;99.90
21625;DHT22;10974;51.034;3.744;2022-09-13T03:38:31;19.10;99.90
21625;DHT22;10974;51.034;3.744;2022-09-13T03:41:05;19.10;99.90
21625;DHT22;10974;51.034;3.744;2022-09-13T03:43:47;19.10;99.90
21625;DHT22;10974;51.034;3.744;2022-09-13T03:48:52;19.00;99.90
21625;DHT22;10974;51.034;3.744;2022-09-13T03:51:18;19.00;99.90
21625;DHT22;10974;51.034;3.744;2022-09-13T03:53:54;19.00;99.90
21625;DHT22;10974;51.034;3.744;2022-09-13T03:56:22;19.00;99.90
21625;DHT22;10974;51.034;3.744;2022-09-13T03:58:48;18.90;99.90
21625;DHT22;10974;51.034;3.744;2022-09-13T04:01:18;18.90;99.90
21625;DHT22;10974;51.034;3.744;2022-09-13T04:03:44;18.90;99.90
21625;DHT22;10974;51.034;3.744;2022-09-13T04:06:10;19.00;99.90
21625;DHT22;10974;51.034;3.744;2022-09-13T04:08:35;18.90;99.90
21625;DHT22;10974;51.034;3.744;2022-09-13T04:11:01;18.90;99.90
21625;DHT22;10974;51.034;3.744;2022-09-13T04:13:27;18.90;99.90
21625;DHT22;10974;51.034;3.744;2022-09-13T04:15:52;18.90;99.90
21625;DHT22;10974;51.034;3.744;2022-09-13T04:18:18;18.90;99.90
21625;DHT22;10974;51.034;3.744;2022-09-13T04:20:52;18.90;99.90
21625;DHT22;10974;51.034;3.744;2022-09-13T04:23:18;18.90;99.90
21625;DHT22;10974;51.034;3.744;2022-09-13T04:25:44;18.90;99.90
21625;DHT22;10974;51.034;3.744;2022-09-13T04:28:10;18.80;99.90
21625;DHT22;10974;51.034;3.744;2022-09-13T04:30:35;18.90;99.90
21625;DHT22;10974;51.034;3.744;2022-09-13T04:33:01;18.90;99.90
21625;DHT22;10974;51.034;3.744;2022-09-13T04:35:27;19.00;99.90
21625;DHT22;10974;51.034;3.744;2022-09-13T04:37:56;18.90;99.90
21625;DHT22;10974;51.034;3.744;2022-09-13T04:40:23;18.90;99.90
21625;DHT22;10974;51.034;3.744;2022-09-13T04:42:48;18.90;99.90
21625;DHT22;10974;51.034;3.744;2022-09-13T04:45:14;18.90;99.90
21625;DHT22;10974;51.034;3.744;2022-09-13T04:47:40;18.90;99.90
21625;DHT22;10974;51.034;3.744;2022-09-13T04:50:06;18.80;99.90
21625;DHT22;10974;51.034;3.744;2022-09-13T04:52:32;19.00;99.90
21625;DHT22;10974;51.034;3.744;2022-09-13T04:54:58;18.90;99.90
21625;DHT22;10974;51.034;3.744;2022-09-13T04:57:26;18.90;99.90
21625;DHT22;10974;51.034;3.744;2022-09-13T04:59:52;18.90;99.90
21625;DHT22;10974;51.034;3.744;2022-09-13T05:02:18;18.90;99.90
21625;DHT22;10974;51.034;3.744;2022-09-13T05:04:43;18.90;99.90
21625;DHT22;10974;51.034;3.744;2022-09-13T05:07:09;18.90;99.90
21625;DHT22;10974;51.034;3.744;2022-09-13T05:09:35;18.90;99.90
21625;DHT22;10974;51.034;3.744;2022-09-13T05:12:01;19.00;99.90
21625;DHT22;10974;51.034;3.744;2022-09-13T05:14:26;18.90;99.90
21625;DHT22;10974;51.034;3.744;2022-09-13T05:16:52;18.90;99.90
21625;DHT22;10974;51.034;3.744;2022-09-13T05:19:17;19.00;99.90
21625;DHT22;10974;51.034;3.744;2022-09-13T05:21:43;19.00;99.90
21625;DHT22;10974;51.034;3.744;2022-09-13T05:24:09;18.90;99.90
21625;DHT22;10974;51.034;3.744;2022-09-13T05:26:35;19.00;99.90
21625;DHT22;10974;51.034;3.744;2022-09-13T05:29:00;19.00;99.90
21625;DHT22;10974;51.034;3.744;2022-09-13T05:31:32;19.00;99.90
21625;DHT22;10974;51.034;3.744;2022-09-13T05:34:01;19.00;99.90
21625;DHT22;10974;51.034;3.744;2022-09-13T05:36:28;19.00;99.90
21625;DHT22;10974;51.034;3.744;2022-09-13T05:38:54;19.00;99.90
21625;DHT22;10974;51.034;3.744;2022-09-13T05:41:20;19.00;99.90
21625;DHT22;10974;51.034;3.744;2022-09-13T05:43:46;19.10;99.90
21625;DHT22;10974;51.034;3.744;2022-09-13T05:46:14;19.00;99.90
21625;DHT22;10974;51.034;3.744;2022-09-13T05:48:41;19.00;99.90
21625;DHT22;10974;51.034;3.744;2022-09-13T05:51:16;19.10;99.90
21625;DHT22;10974;51.034;3.744;2022-09-13T05:53:47;19.10;99.90
21625;DHT22;10974;51.034;3.744;2022-09-13T05:56:24;19.10;99.90
21625;DHT22;10974;51.034;3.744;2022-09-13T05:58:51;19.00;99.90
21625;DHT22;10974;51.034;3.744;2022-09-13T06:01:19;19.60;99.90
21625;DHT22;10974;51.034;3.744;2022-09-13T06:03:49;20.30;99.90
21625;DHT22;10974;51.034;3.744;2022-09-13T06:06:16;21.00;99.90
21625;DHT22;10974;51.034;3.744;2022-09-13T06:08:42;21.40;99.90
21625;DHT22;10974;51.034;3.744;2022-09-13T06:11:09;21.80;99.90
21625;DHT22;10974;51.034;3.744;2022-09-13T06:13:36;22.10;99.90
21625;DHT22;10974;51.034;3.744;2022-09-13T06:16:04;22.30;99.90
21625;DHT22;10974;51.034;3.744;2022-09-13T06:18:31;22.50;99.90
21625;DHT22;10974;51.034;3.744;2022-09-13T06:21:02;22.60;99.90
21625;DHT22;10974;51.034;3.744;2022-09-13T06:23:28;22.80;99.90
21625;DHT22;10974;51.034;3.744;2022-09-13T06:26:01;22.90;99.90
21625;DHT22;10974;51.034;3.744;2022-09-13T06:28:26;23.00;99.90
21625;DHT22;10974;51.034;3.744;2022-09-13T06:33:34;22.40;99.90
21625;DHT22;10974;51.034;3.744;2022-09-13T06:36:02;22.10;99.90
21625;DHT22;10974;51.034;3.744;2022-09-13T06:38:28;22.00;99.90
21625;DHT22;10974;51.034;3.744;2022-09-13T06:41:05;22.00;99.90
21625;DHT22;10974;51.034;3.744;2022-09-13T06:43:32;21.90;99.90
21625;DHT22;10974;51.034;3.744;2022-09-13T06:46:06;21.90;99.90
21625;DHT22;10974;51.034;3.744;2022-09-13T06:48:37;21.80;99.90
21625;DHT22;10974;51.034;3.744;2022-09-13T06:51:12;21.90;99.90
21625;DHT22;10974;51.034;3.744;2022-09-13T06:53:38;21.90;99.90
21625;DHT22;10974;51.034;3.744;2022-09-13T06:56:14;21.90;99.90
21625;DHT22;10974;51.034;3.744;2022-09-13T06:58:41;22.00;99.90
21625;DHT22;10974;51.034;3.744;2022-09-13T07:01:16;22.00;99.90
21625;DHT22;10974;51.034;3.744;2022-09-13T07:03:46;22.00;99.90
21625;DHT22;10974;51.034;3.744;2022-09-13T07:06:19;22.00;99.90
21625;DHT22;10974;51.034;3.744;2022-09-13T07:08:47;21.90;99.90
21625;DHT22;10974;51.034;3.744;2022-09-13T07:11:15;21.90;99.90
21625;DHT22;10974;51.034;3.744;2022-09-13T07:13:47;21.90;99.90
21625;DHT22;10974;51.034;3.744;2022-09-13T07:16:13;21.90;99.90
21625;DHT22;10974;51.034;3.744;2022-09-13T07:18:39;22.00;99.90
21625;DHT22;10974;51.034;3.744;2022-09-13T07:21:09;22.00;99.90
21625;DHT22;10974;51.034;3.744;2022-09-13T07:23:37;22.10;99.90
21625;DHT22;10974;51.034;3.744;2022-09-13T07:26:05;22.10;99.90
21625;DHT22;10974;51.034;3.744;2022-09-13T07:33:35;22.20;99.90
21625;DHT22;10974;51.034;3.744;2022-09-13T07:36:01;22.30;99.90
21625;DHT22;10974;51.034;3.744;2022-09-13T07:38:40;22.30;99.90
21625;DHT22;10974;51.034;3.744;2022-09-13T07:41:09;22.40;99.90
21625;DHT22;10974;51.034;3.744;2022-09-13T07:43:36;22.40;99.90
21625;DHT22;10974;51.034;3.744;2022-09-13T07:48:37;22.50;99.90
21625;DHT22;10974;51.034;3.744;2022-09-13T07:53:37;22.60;99.90
21625;DHT22;10974;51.034;3.744;2022-09-13T07:58:32;22.60;99.90
21625;DHT22;10974;51.034;3.744;2022-09-13T08:03:29;22.90;99.90
21625;DHT22;10974;51.034;3.744;2022-09-13T08:05:55;22.90;99.90
21625;DHT22;10974;51.034;3.744;2022-09-13T08:08:21;23.00;99.90
21625;DHT22;10974;51.034;3.744;2022-09-13T08:10:47;23.00;99.90
21625;DHT22;10974;51.034;3.744;2022-09-13T08:13:15;23.00;99.90
21625;DHT22;10974;51.034;3.744;2022-09-13T08:15:41;23.10;99.90
21625;DHT22;10974;51.034;3.744;2022-09-13T08:18:07;23.10;99.90
21625;DHT22;10974;51.034;3.744;2022-09-13T08:20:36;23.20;99.90
21625;DHT22;10974;51.034;3.744;2022-09-13T08:23:02;23.20;99.90
21625;DHT22;10974;51.034;3.744;2022-09-13T08:25:34;23.20;99.90
21625;DHT22;10974;51.034;3.744;2022-09-13T08:28:17;23.30;99.90
21625;DHT22;10974;51.034;3.744;2022-09-13T08:30:43;23.30;99.90
21625;DHT22;10974;51.034;3.744;2022-09-13T08:33:10;23.40;99.90
21625;DHT22;10974;51.034;3.744;2022-09-13T08:35:36;23.50;99.90
21625;DHT22;10974;51.034;3.744;2022-09-13T08:38:03;23.50;99.90
21625;DHT22;10974;51.034;3.744;2022-09-13T08:40:32;23.60;99.90
21625;DHT22;10974;51.034;3.744;2022-09-13T08:46:01;23.70;99.90
21625;DHT22;10974;51.034;3.744;2022-09-13T08:48:41;23.80;99.90
21625;DHT22;10974;51.034;3.744;2022-09-13T08:53:49;23.90;99.90
21625;DHT22;10974;51.034;3.744;2022-09-13T08:59:06;23.80;99.90
21625;DHT22;10974;51.034;3.744;2022-09-13T09:04:32;23.90;99.90
21625;DHT22;10974;51.034;3.744;2022-09-13T09:07:38;23.90;99.90
21625;DHT22;10974;51.034;3.744;2022-09-13T09:10:23;23.80;99.90
21625;DHT22;10974;51.034;3.744;2022-09-13T09:13:58;23.80;99.90
21625;DHT22;10974;51.034;3.744;2022-09-13T09:15:55;23.80;99.90
21625;DHT22;10974;51.034;3.744;2022-09-13T09:18:28;23.80;99.90
21625;DHT22;10974;51.034;3.744;2022-09-13T09:20:56;23.90;99.90
21625;DHT22;10974;51.034;3.744;2022-09-13T09:23:38;24.00;99.90
21625;DHT22;10974;51.034;3.744;2022-09-13T09:26:18;24.00;99.90
21625;DHT22;10974;51.034;3.744;2022-09-13T09:28:58;24.00;99.90
21625;DHT22;10974;51.034;3.744;2022-09-13T09:37:27;23.90;99.90
21625;DHT22;10974;51.034;3.744;2022-09-13T09:39:57;23.90;99.90
21625;DHT22;10974;51.034;3.744;2022-09-13T09:42:26;23.90;99.90
21625;DHT22;10974;51.034;3.744;2022-09-13T09:45:05;24.00;99.90
21625;DHT22;10974;51.034;3.744;2022-09-13T09:47:45;24.00;99.90
21625;DHT22;10974;51.034;3.744;2022-09-13T09:50:16;24.20;99.90
21625;DHT22;10974;51.034;3.744;2022-09-13T09:55:31;24.30;99.90
21625;DHT22;10974;51.034;3.744;2022-09-13T09:58:01;24.30;99.90
21625;DHT22;10974;51.034;3.744;2022-09-13T10:00:34;24.50;99.90
21625;DHT22;10974;51.034;3.744;2022-09-13T10:03:23;24.50;99.90
21625;DHT22;10974;51.034;3.744;2022-09-13T10:05:50;24.40;99.90
21625;DHT22;10974;51.034;3.744;2022-09-13T10:08:27;24.20;99.90
21625;DHT22;10974;51.034;3.744;2022-09-13T10:10:56;24.10;99.90
21625;DHT22;10974;51.034;3.744;2022-09-13T10:13:24;24.00;99.90
21625;DHT22;10974;51.034;3.744;2022-09-13T10:18:33;24.00;99.90
21625;DHT22;10974;51.034;3.744;2022-09-13T10:23:34;24.50;99.90
21625;DHT22;10974;51.034;3.744;2022-09-13T10:26:13;24.70;99.90
21625;DHT22;10974;51.034;3.744;2022-09-13T10:28:56;25.00;99.90
21625;DHT22;10974;51.034;3.744;2022-09-13T10:31:29;24.90;99.90
21625;DHT22;10974;51.034;3.744;2022-09-13T10:34:00;24.90;99.90
21625;DHT22;10974;51.034;3.744;2022-09-13T10:36:34;25.10;99.90
21625;DHT22;10974;51.034;3.744;2022-09-13T10:39:06;24.90;99.90
21625;DHT22;10974;51.034;3.744;2022-09-13T10:41:35;24.80;99.90
21625;DHT22;10974;51.034;3.744;2022-09-13T10:44:06;24.60;99.90
21625;DHT22;10974;51.034;3.744;2022-09-13T10:46:47;24.80;99.90
21625;DHT22;10974;51.034;3.744;2022-09-13T10:54:49;24.80;99.90
21625;DHT22;10974;51.034;3.744;2022-09-13T10:57:35;24.90;99.90
21625;DHT22;10974;51.034;3.744;2022-09-13T11:00:05;24.70;99.90
21625;DHT22;10974;51.034;3.744;2022-09-13T11:08:10;25.60;99.90
21625;DHT22;10974;51.034;3.744;2022-09-13T11:15:55;25.30;99.90
21625;DHT22;10974;51.034;3.744;2022-09-13T11:35:34;25.50;1.00
21625;DHT22;10974;51.034;3.744;2022-09-13T11:41:17;26.30;99.90
21625;DHT22;10974;51.034;3.744;2022-09-13T11:46:43;25.90;1.00
21625;DHT22;10974;51.034;3.744;2022-09-13T11:52:02;25.50;1.00
21625;DHT22;10974;51.034;3.744;2022-09-13T11:57:20;25.40;1.00
21625;DHT22;10974;51.034;3.744;2022-09-13T11:59:56;25.10;99.90
21625;DHT22;10974;51.034;3.744;2022-09-13T12:02:31;24.80;99.90
21625;DHT22;10974;51.034;3.744;2022-09-13T12:05:13;24.90;1.00
21625;DHT22;10974;51.034;3.744;2022-09-13T12:07:57;24.60;99.90
21625;DHT22;10974;51.034;3.744;2022-09-13T12:10:31;24.50;99.90
21625;DHT22;10974;51.034;3.744;2022-09-13T12:12:58;24.40;99.90
21625;DHT22;10974;51.034;3.744;2022-09-13T12:15:40;24.40;99.90
21625;DHT22;10974;51.034;3.744;2022-09-13T12:18:29;24.40;99.90
21625;DHT22;10974;51.034;3.744;2022-09-13T12:21:03;24.30;99.90
21625;DHT22;10974;51.034;3.744;2022-09-13T12:23:32;24.10;99.90
21625;DHT22;10974;51.034;3.744;2022-09-13T12:31:19;23.80;99.90
21625;DHT22;10974;51.034;3.744;2022-09-13T12:33:47;23.90;99.90
21625;DHT22;10974;51.034;3.744;2022-09-13T12:47:31;23.10;99.90
21625;DHT22;10974;51.034;3.744;2022-09-13T13:01:14;22.80;99.90
21625;DHT22;10974;51.034;3.744;2022-09-13T13:03:52;22.90;99.90
21625;DHT22;10974;51.034;3.744;2022-09-13T13:06:28;22.70;99.90
21625;DHT22;10974;51.034;3.744;2022-09-13T13:08:57;22.70;99.90
21625;DHT22;10974;51.034;3.744;2022-09-13T13:11:26;22.80;99.90
21625;DHT22;10974;51.034;3.744;2022-09-13T13:14:00;22.80;99.90
21625;DHT22;10974;51.034;3.744;2022-09-13T13:16:38;22.60;99.90
21625;DHT22;10974;51.034;3.744;2022-09-13T13:19:29;22.60;99.90
21625;DHT22;10974;51.034;3.744;2022-09-13T13:25:35;22.40;99.90
21625;DHT22;10974;51.034;3.744;2022-09-13T13:31:06;22.20;99.90
21625;DHT22;10974;51.034;3.744;2022-09-13T13:33:45;22.20;99.90
21625;DHT22;10974;51.034;3.744;2022-09-13T13:41:55;22.10;99.90
21625;DHT22;10974;51.034;3.744;2022-09-13T13:49:52;21.90;99.90
21625;DHT22;10974;51.034;3.744;2022-09-13T13:55:20;21.80;99.90
21625;DHT22;10974;51.034;3.744;2022-09-13T14:00:50;21.70;99.90
21625;DHT22;10974;51.034;3.744;2022-09-13T14:11:54;21.70;99.90
21625;DHT22;10974;51.034;3.744;2022-09-13T14:24:40;21.70;99.90
21625;DHT22;10974;51.034;3.744;2022-09-13T14:27:14;21.80;99.90
21625;DHT22;10974;51.034;3.744;2022-09-13T14:29:53;21.70;99.90
21625;DHT22;10974;51.034;3.744;2022-09-13T14:32:30;21.80;99.90
21625;DHT22;10974;51.034;3.744;2022-09-13T14:35:04;21.60;99.90
21625;DHT22;10974;51.034;3.744;2022-09-13T14:37:33;21.60;99.90
21625;DHT22;10974;51.034;3.744;2022-09-13T14:42:40;21.60;99.90
21625;DHT22;10974;51.034;3.744;2022-09-13T14:45:12;21.60;99.90
21625;DHT22;10974;51.034;3.744;2022-09-13T14:47:49;21.60;99.90
21625;DHT22;10974;51.034;3.744;2022-09-13T14:50:19;21.70;99.90
21625;DHT22;10974;51.034;3.744;2022-09-13T14:52:52;21.60;99.90
21625;DHT22;10974;51.034;3.744;2022-09-13T14:55:25;21.60;99.90
21625;DHT22;10974;51.034;3.744;2022-09-13T14:58:00;21.70;99.90
21625;DHT22;10974;51.034;3.744;2022-09-13T15:00:30;21.60;99.90
21625;DHT22;10974;51.034;3.744;2022-09-13T15:03:00;21.60;99.90
21625;DHT22;10974;51.034;3.744;2022-09-13T15:05:30;21.60;99.90
21625;DHT22;10974;51.034;3.744;2022-09-13T15:07:56;21.60;99.90
21625;DHT22;10974;51.034;3.744;2022-09-13T15:18:04;21.60;99.90
21625;DHT22;10974;51.034;3.744;2022-09-13T15:23:33;21.60;99.90
21625;DHT22;10974;51.034;3.744;2022-09-13T15:26:18;21.50;99.90
21625;DHT22;10974;51.034;3.744;2022-09-13T15:28:50;21.50;99.90
21625;DHT22;10974;51.034;3.744;2022-09-13T15:31:23;21.50;99.90
21625;DHT22;10974;51.034;3.744;2022-09-13T15:36:41;21.40;99.90
21625;DHT22;10974;51.034;3.744;2022-09-13T15:41:35;22.30;99.90
21625;DHT22;10974;51.034;3.744;2022-09-13T15:44:03;22.70;99.90
21625;DHT22;10974;51.034;3.744;2022-09-13T15:46:29;22.90;99.90
21625;DHT22;10974;51.034;3.744;2022-09-13T15:48:57;23.20;99.90
21625;DHT22;10974;51.034;3.744;2022-09-13T15:51:24;23.40;99.90
21625;DHT22;10974;51.034;3.744;2022-09-13T15:53:51;23.40;99.90
21625;DHT22;10974;51.034;3.744;2022-09-13T15:56:21;23.60;99.90
21625;DHT22;10974;51.034;3.744;2022-09-13T15:58:49;23.60;99.90
21625;DHT22;10974;51.034;3.744;2022-09-13T16:01:15;23.60;99.90
21625;DHT22;10974;51.034;3.744;2022-09-13T16:03:41;23.70;99.90
21625;DHT22;10974;51.034;3.744;2022-09-13T16:06:08;23.80;99.90
21625;DHT22;10974;51.034;3.744;2022-09-13T16:08:35;23.80;99.90
21625;DHT22;10974;51.034;3.744;2022-09-13T16:11:01;23.80;99.90
21625;DHT22;10974;51.034;3.744;2022-09-13T16:13:26;23.80;99.90
21625;DHT22;10974;51.034;3.744;2022-09-13T16:15:52;23.80;99.90
21625;DHT22;10974;51.034;3.744;2022-09-13T16:18:18;23.80;99.90
21625;DHT22;10974;51.034;3.744;2022-09-13T16:20:44;23.90;99.90
21625;DHT22;10974;51.034;3.744;2022-09-13T16:23:10;24.00;99.90
21625;DHT22;10974;51.034;3.744;2022-09-13T16:25:36;24.00;99.90
21625;DHT22;10974;51.034;3.744;2022-09-13T16:28:04;24.00;99.90
21625;DHT22;10974;51.034;3.744;2022-09-13T16:30:30;24.00;99.90
21625;DHT22;10974;51.034;3.744;2022-09-13T16:32:56;22.40;99.90
21625;DHT22;10974;51.034;3.744;2022-09-13T16:35:25;21.60;99.90
21625;DHT22;10974;51.034;3.744;2022-09-13T16:37:52;21.30;99.90
21625;DHT22;10974;51.034;3.744;2022-09-13T16:40:18;21.20;99.90
21625;DHT22;10974;51.034;3.744;2022-09-13T16:42:44;21.10;99.90
21625;DHT22;10974;51.034;3.744;2022-09-13T16:45:10;21.10;99.90
21625;DHT22;10974;51.034;3.744;2022-09-13T16:47:37;21.10;99.90
21625;DHT22;10974;51.034;3.744;2022-09-13T16:50:04;21.00;99.90
21625;DHT22;10974;51.034;3.744;2022-09-13T16:52:31;21.00;99.90
21625;DHT22;10974;51.034;3.744;2022-09-13T16:54:57;20.90;99.90
21625;DHT22;10974;51.034;3.744;2022-09-13T16:57:23;20.90;99.90
21625;DHT22;10974;51.034;3.744;2022-09-13T16:59:49;20.90;99.90
21625;DHT22;10974;51.034;3.744;2022-09-13T17:02:18;20.90;99.90
21625;DHT22;10974;51.034;3.744;2022-09-13T17:04:44;20.90;99.90
21625;DHT22;10974;51.034;3.744;2022-09-13T17:07:10;20.70;99.90
21625;DHT22;10974;51.034;3.744;2022-09-13T17:09:36;20.70;99.90
21625;DHT22;10974;51.034;3.744;2022-09-13T17:12:06;20.60;99.90
21625;DHT22;10974;51.034;3.744;2022-09-13T17:14:32;20.50;99.90
21625;DHT22;10974;51.034;3.744;2022-09-13T17:16:58;20.50;99.90
21625;DHT22;10974;51.034;3.744;2022-09-13T17:19:28;20.40;99.90
21625;DHT22;10974;51.034;3.744;2022-09-13T17:21:59;20.30;99.90
21625;DHT22;10974;51.034;3.744;2022-09-13T17:24:27;20.40;99.90
21625;DHT22;10974;51.034;3.744;2022-09-13T17:26:54;20.30;99.90
21625;DHT22;10974;51.034;3.744;2022-09-13T17:29:21;20.10;99.90
21625;DHT22;10974;51.034;3.744;2022-09-13T17:31:47;20.10;99.90
21625;DHT22;10974;51.034;3.744;2022-09-13T17:34:13;20.00;99.90
21625;DHT22;10974;51.034;3.744;2022-09-13T17:36:39;20.00;99.90
21625;DHT22;10974;51.034;3.744;2022-09-13T17:39:05;20.00;99.90
21625;DHT22;10974;51.034;3.744;2022-09-13T17:41:31;19.90;99.90
21625;DHT22;10974;51.034;3.744;2022-09-13T17:43:57;19.90;99.90
21625;DHT22;10974;51.034;3.744;2022-09-13T17:46:25;19.80;99.90
21625;DHT22;10974;51.034;3.744;2022-09-13T17:48:53;19.80;99.90
21625;DHT22;10974;51.034;3.744;2022-09-13T17:51:22;19.80;99.90
21625;DHT22;10974;51.034;3.744;2022-09-13T17:53:53;19.80;99.90
21625;DHT22;10974;51.034;3.744;2022-09-13T17:56:28;19.70;99.90
21625;DHT22;10974;51.034;3.744;2022-09-13T17:59:07;19.70;99.90
21625;DHT22;10974;51.034;3.744;2022-09-13T18:01:35;19.70;99.90
21625;DHT22;10974;51.034;3.744;2022-09-13T18:04:01;19.60;99.90
21625;DHT22;10974;51.034;3.744;2022-09-13T18:06:27;19.50;99.90
21625;DHT22;10974;51.034;3.744;2022-09-13T18:08:52;19.40;99.90
21625;DHT22;10974;51.034;3.744;2022-09-13T18:11:19;19.30;99.90
21625;DHT22;10974;51.034;3.744;2022-09-13T18:13:45;19.30;99.90
21625;DHT22;10974;51.034;3.744;2022-09-13T18:16:21;19.20;99.90
21625;DHT22;10974;51.034;3.744;2022-09-13T18:18:51;19.20;99.90
21625;DHT22;10974;51.034;3.744;2022-09-13T18:21:22;19.10;99.90
21625;DHT22;10974;51.034;3.744;2022-09-13T18:23:51;19.10;99.90
21625;DHT22;10974;51.034;3.744;2022-09-13T18:26:19;19.00;99.90
21625;DHT22;10974;51.034;3.744;2022-09-13T18:28:46;19.10;99.90
21625;DHT22;10974;51.034;3.744;2022-09-13T18:31:14;19.00;99.90
21625;DHT22;10974;51.034;3.744;2022-09-13T18:33:41;19.10;99.90
21625;DHT22;10974;51.034;3.744;2022-09-13T18:36:09;19.40;99.90
21625;DHT22;10974;51.034;3.744;2022-09-13T18:38:40;20.20;99.90
21625;DHT22;10974;51.034;3.744;2022-09-13T18:41:15;20.80;99.90
21625;DHT22;10974;51.034;3.744;2022-09-13T18:43:42;21.20;99.90
21625;DHT22;10974;51.034;3.744;2022-09-13T18:46:10;21.50;99.90
21625;DHT22;10974;51.034;3.744;2022-09-13T18:48:39;21.80;99.90
21625;DHT22;10974;51.034;3.744;2022-09-13T18:51:08;22.10;99.90
21625;DHT22;10974;51.034;3.744;2022-09-13T18:53:34;22.20;99.90
21625;DHT22;10974;51.034;3.744;2022-09-13T18:56:01;22.30;99.90
21625;DHT22;10974;51.034;3.744;2022-09-13T18:58:32;22.40;99.90
21625;DHT22;10974;51.034;3.744;2022-09-13T19:01:06;22.50;99.90
21625;DHT22;10974;51.034;3.744;2022-09-13T19:03:33;22.60;99.90
21625;DHT22;10974;51.034;3.744;2022-09-13T19:06:17;22.60;99.90
21625;DHT22;10974;51.034;3.744;2022-09-13T19:08:43;22.60;99.90
21625;DHT22;10974;51.034;3.744;2022-09-13T19:11:10;22.60;99.90
21625;DHT22;10974;51.034;3.744;2022-09-13T19:13:36;22.70;99.90
21625;DHT22;10974;51.034;3.744;2022-09-13T19:16:04;22.60;99.90
21625;DHT22;10974;51.034;3.744;2022-09-13T19:18:32;22.70;99.90
21625;DHT22;10974;51.034;3.744;2022-09-13T19:21:11;22.60;99.90
21625;DHT22;10974;51.034;3.744;2022-09-13T19:23:38;22.60;99.90
21625;DHT22;10974;51.034;3.744;2022-09-13T19:26:07;22.60;99.90
21625;DHT22;10974;51.034;3.744;2022-09-13T19:28:35;22.60;99.90
21625;DHT22;10974;51.034;3.744;2022-09-13T19:31:11;22.50;99.90
21625;DHT22;10974;51.034;3.744;2022-09-13T19:33:38;22.60;99.90
21625;DHT22;10974;51.034;3.744;2022-09-13T19:36:06;22.60;99.90
21625;DHT22;10974;51.034;3.744;2022-09-13T19:38:33;22.60;99.90
21625;DHT22;10974;51.034;3.744;2022-09-13T19:41:01;22.50;99.90
21625;DHT22;10974;51.034;3.744;2022-09-13T19:43:29;22.50;99.90